Time;durP1;ratioP1;P1;durP2;ratioP2;P2;SDS_P1;SDS_P2;PMS_P1;PMS_P2;Temp;Humidity;BMP_temperature;BMP_pressure;BME280_temperature;BME280_humidity;BME280_pressure;Samples;Min_cycle;Max_cycle;Signal;HPM_P1;HPM_P2
2023/05/08 00:01:42;;;;;;;130.48;77.28;;;;;;;13.86;100.00;102128.78;4989579;28;20022;-60
2023/05/08 00:04:07;;;;;;;122.28;74.05;;;;;;;13.83;100.00;102135.03;4988730;28;20026;-59
2023/05/08 00:06:33;;;;;;;118.15;73.35;;;;;;;13.80;100.00;102145.69;4988058;28;20037;-59
2023/05/08 00:08:58;;;;;;;114.82;70.88;;;;;;;13.78;100.00;102142.22;4988740;28;20034;-59
2023/05/08 00:11:23;;;;;;;125.10;74.80;;;;;;;13.75;100.00;102150.25;5007575;28;20034;-58
2023/05/08 00:13:49;;;;;;;115.72;69.95;;;;;;;13.73;100.00;102149.44;5006567;28;20076;-58
2023/05/08 00:16:14;;;;;;;125.50;74.90;;;;;;;13.70;100.00;102150.34;5007435;28;20099;-57
2023/05/08 00:18:40;;;;;;;125.25;75.78;;;;;;;13.69;100.00;102150.44;5008781;28;20029;-56
2023/05/08 00:21:05;;;;;;;114.18;72.32;;;;;;;13.63;100.00;102149.66;5006736;28;20036;-56
2023/05/08 00:23:32;;;;;;;126.32;76.13;;;;;;;13.61;100.00;102146.16;5007354;28;20038;-63
2023/05/08 00:25:57;;;;;;;130.32;75.43;;;;;;;13.55;100.00;102145.47;5008703;28;20032;-60
2023/05/08 00:28:22;;;;;;;122.35;73.60;;;;;;;13.48;100.00;102135.00;5010378;28;20100;-58
2023/05/08 00:30:48;;;;;;;118.78;72.75;;;;;;;13.44;100.00;102148.34;5006480;28;20080;-58
2023/05/08 00:33:13;;;;;;;116.32;70.55;;;;;;;13.39;100.00;102146.69;5008764;28;20080;-58
2023/05/08 00:35:41;;;;;;;119.75;72.70;;;;;;;13.35;100.00;102146.81;5006563;28;20541;-58
2023/05/08 00:38:06;;;;;;;126.45;74.63;;;;;;;13.34;100.00;102147.72;5006643;28;20496;-58
2023/05/08 00:40:31;;;;;;;137.85;78.43;;;;;;;13.33;100.00;102144.19;4998375;28;20034;-58
2023/05/08 00:42:57;;;;;;;141.93;78.53;;;;;;;13.34;100.00;102145.06;4987404;28;20033;-58
2023/05/08 00:45:22;;;;;;;123.28;74.75;;;;;;;13.29;100.00;102150.47;4986314;28;20027;-59
2023/05/08 00:47:48;;;;;;;117.60;71.25;;;;;;;13.29;100.00;102150.47;4987573;28;20027;-56
2023/05/08 00:50:14;;;;;;;126.63;72.78;;;;;;;13.22;100.00;102154.19;4998909;28;20461;-58
2023/05/08 00:52:39;;;;;;;133.18;75.30;;;;;;;13.18;100.00;102147.22;5006564;28;20575;-56
2023/05/08 00:55:05;;;;;;;129.25;73.70;;;;;;;13.12;100.00;102151.75;5005424;28;20025;-58
2023/05/08 00:57:31;;;;;;;126.30;73.28;;;;;;;13.08;100.00;102149.22;5007066;28;20030;-58
2023/05/08 00:59:58;;;;;;;122.88;72.75;;;;;;;13.06;100.00;102149.25;5005584;28;20033;-58
2023/05/08 01:02:24;;;;;;;113.70;68.22;;;;;;;13.06;100.00;102154.53;5007122;28;20022;-56
2023/05/08 01:04:51;;;;;;;172.65;67.03;;;;;;;13.01;100.00;102149.34;5075175;22;20466;-56
2023/05/08 01:07:16;;;;;;;233.02;68.53;;;;;;;12.99;100.00;102150.28;5001907;28;20034;-56
2023/05/08 01:09:42;;;;;;;163.88;63.10;;;;;;;12.95;100.00;102156.56;4987567;28;20056;-58
2023/05/08 01:12:17;;;;;;;160.70;61.05;;;;;;;12.89;100.00;102142.56;4987733;28;20030;-57
2023/05/08 01:14:46;;;;;;;266.33;69.47;;;;;;;12.91;100.00;102141.69;4986341;28;20030;-58
2023/05/08 01:17:29;;;;;;;141.65;63.38;;;;;;;12.93;100.00;102142.50;4992524;28;20044;-56
2023/05/08 01:20:18;;;;;;;98.70;58.83;;;;;;;12.97;100.00;102138.88;5008050;28;20030;-59
2023/05/08 01:23:02;;;;;;;80.90;58.67;;;;;;;12.99;100.00;102145.00;5009118;28;20096;-59
2023/05/08 01:26:01;;;;;;;117.85;61.42;;;;;;;12.95;100.00;102140.69;5010528;28;20035;-58
2023/05/08 01:29:03;;;;;;;88.85;56.28;;;;;;;12.89;100.00;102136.41;5009209;28;20744;-59
2023/05/08 01:31:44;;;;;;;77.00;54.67;;;;;;;12.79;100.00;102133.09;5009875;28;20034;-57
2023/05/08 01:34:30;;;;;;;76.03;54.05;;;;;;;12.75;100.00;102128.78;5010477;28;20160;-57
2023/05/08 01:37:02;;;;;;;86.80;56.53;;;;;;;12.71;100.00;102129.75;5008553;28;20030;-54
2023/05/08 01:39:43;;;;;;;165.20;64.57;;;;;;;12.64;100.00;102140.47;4990533;28;20663;-55
2023/05/08 01:42:27;;;;;;;86.00;62.45;;;;;;;12.59;100.00;102144.13;4989562;28;20084;-58
2023/05/08 01:45:20;;;;;;;96.78;62.33;;;;;;;12.63;100.00;102145.78;4990334;28;20029;-56
2023/05/08 01:47:50;;;;;;;104.72;64.90;;;;;;;12.66;100.00;102153.66;4984004;28;20065;-56
2023/05/08 01:50:27;;;;;;;114.60;69.90;;;;;;;12.66;100.00;102150.13;5008674;28;20345;-57
2023/05/08 01:52:58;;;;;;;115.57;68.40;;;;;;;12.64;100.00;102158.09;5007941;28;20033;-56
2023/05/08 01:55:26;;;;;;;96.22;62.38;;;;;;;12.67;100.00;102162.47;5009188;28;20026;-57
2023/05/08 01:57:53;;;;;;;93.78;59.42;;;;;;;12.57;100.00;102164.44;5007394;28;20033;-57
2023/05/08 02:00:21;;;;;;;81.75;55.70;;;;;;;12.50;100.00;102159.25;5008664;28;20034;-56
2023/05/08 02:02:47;;;;;;;87.43;53.28;;;;;;;12.42;100.00;102162.97;5009685;28;20025;-58
2023/05/08 02:05:13;;;;;;;78.72;52.45;;;;;;;12.45;100.00;102165.56;4992111;28;20542;-59
2023/05/08 02:07:39;;;;;;;81.18;54.63;;;;;;;12.47;100.00;102171.69;4990033;28;20026;-59
2023/05/08 02:10:05;;;;;;;84.38;57.63;;;;;;;12.45;100.00;102162.91;4988087;28;20026;-56
2023/05/08 02:12:31;;;;;;;96.20;58.80;;;;;;;12.40;100.00;102172.72;4998591;28;20083;-56
2023/05/08 02:14:58;;;;;;;93.43;55.90;;;;;;;12.42;100.00;102170.91;5008557;28;20473;-59
2023/05/08 02:17:23;;;;;;;107.93;62.53;;;;;;;12.44;100.00;102164.72;5007034;28;20667;-54
2023/05/08 02:19:50;;;;;;;140.52;63.47;;;;;;;12.37;100.00;102160.41;5003197;28;20065;-58
2023/05/08 02:22:15;;;;;;;113.75;66.13;;;;;;;12.40;100.00;102163.00;4988013;28;20162;-55
2023/05/08 02:24:41;;;;;;;110.25;63.35;;;;;;;12.41;100.00;102167.41;5004304;28;20084;-58
2023/05/08 02:27:08;;;;;;;104.10;62.92;;;;;;;12.44;100.00;102161.19;5007713;28;20030;-56
2023/05/08 02:29:35;;;;;;;141.02;68.85;;;;;;;12.45;100.00;102165.56;5005451;28;20049;-58
2023/05/08 02:32:01;;;;;;;113.97;67.22;;;;;;;12.53;100.00;102166.28;5007549;28;20037;-56
2023/05/08 02:34:27;;;;;;;242.07;74.72;;;;;;;12.56;100.00;102165.34;5007909;28;20037;-57
2023/05/08 02:36:52;;;;;;;171.77;71.13;;;;;;;12.48;100.00;102166.38;5007130;28;20022;-57
2023/05/08 02:39:19;;;;;;;154.50;73.53;;;;;;;12.46;100.00;102168.16;5005591;28;20049;-59
2023/05/08 02:41:45;;;;;;;180.95;70.43;;;;;;;12.47;100.00;102174.34;5008948;28;20101;-56
2023/05/08 02:44:10;;;;;;;200.50;73.53;;;;;;;12.41;100.00;102161.25;5008072;28;20595;-58
2023/05/08 02:46:47;;;;;;;116.25;67.68;;;;;;;12.42;100.00;102173.53;5006924;28;20477;-56
2023/05/08 02:49:28;;;;;;;112.88;65.93;;;;;;;12.35;100.00;102168.41;5009036;28;20053;-58
2023/05/08 02:51:59;;;;;;;179.73;69.30;;;;;;;12.33;100.00;102164.91;5006400;28;20034;-56
2023/05/08 02:54:34;;;;;;;159.57;72.78;;;;;;;12.28;100.00;102161.47;5009068;28;20172;-56
2023/05/08 02:57:27;;;;;;;155.88;71.70;;;;;;;12.27;100.00;102162.38;5006298;28;20434;-56
2023/05/08 03:00:17;;;;;;;239.52;72.57;;;;;;;12.23;100.00;102156.31;5008053;28;20026;-55
2023/05/08 03:02:55;;;;;;;148.65;69.30;;;;;;;12.13;100.00;102152.97;5005781;28;20074;-60
2023/05/08 03:05:29;;;;;;;135.95;67.53;;;;;;;12.20;100.00;102155.50;4984387;28;20050;-57
2023/05/08 03:07:57;;;;;;;137.05;66.95;;;;;;;12.19;100.00;102159.03;4967510;28;20030;-55
2023/05/08 03:10:27;;;;;;;136.00;69.35;;;;;;;12.22;100.00;102156.34;4982757;28;20121;-57
2023/05/08 03:12:53;;;;;;;371.98;81.13;;;;;;;12.17;100.00;102150.25;4988102;28;20022;-56
2023/05/08 03:15:45;;;;;;;164.25;71.63;;;;;;;12.19;100.00;102156.41;4997947;28;20069;-55
2023/05/08 03:18:14;;;;;;;322.05;69.65;;;;;;;12.18;100.00;102149.34;4997872;28;20038;-55
2023/05/08 03:20:46;;;;;;;120.45;68.63;;;;;;;12.15;100.00;102155.56;5006221;28;20037;-55
2023/05/08 03:23:13;;;;;;;225.75;73.72;;;;;;;12.13;100.00;102147.69;5006525;28;20483;-54
2023/05/08 03:25:40;;;;;;;255.35;70.50;;;;;;;12.06;100.00;102150.41;5005984;28;20036;-55
2023/05/08 03:28:06;;;;;;;223.55;68.22;;;;;;;11.99;100.00;102158.50;5006255;28;20030;-58
2023/05/08 03:30:34;;;;;;;107.20;64.45;;;;;;;11.99;100.00;102152.31;5004825;28;20030;-59
2023/05/08 03:33:00;;;;;;;241.82;64.32;;;;;;;11.91;100.00;102151.59;5006251;28;20686;-53
2023/05/08 03:35:26;;;;;;;182.85;67.82;;;;;;;11.84;100.00;102150.84;5005440;28;20072;-56
2023/05/08 03:37:52;;;;;;;137.38;60.50;;;;;;;11.85;100.00;102158.72;5001021;28;20056;-56
2023/05/08 03:40:18;;;;;;;156.60;63.30;;;;;;;11.90;100.00;102160.41;4993667;28;20475;-59
2023/05/08 03:42:43;;;;;;;185.35;58.53;;;;;;;11.91;100.00;102154.22;5006173;28;20072;-56
2023/05/08 03:45:09;;;;;;;371.50;63.38;;;;;;;11.93;100.00;102153.31;4998234;28;20412;-58
2023/05/08 03:47:35;;;;;;;92.90;56.08;;;;;;;11.93;100.00;102152.44;4993548;28;20125;-56
2023/05/08 03:50:02;;;;;;;207.25;61.47;;;;;;;11.88;100.00;102153.41;5005801;28;20116;-56
2023/05/08 03:52:27;;;;;;;102.75;55.75;;;;;;;11.83;100.00;102143.81;5007342;28;20033;-58
2023/05/08 03:54:53;;;;;;;95.43;57.65;;;;;;;11.93;100.00;102144.50;5001700;28;20054;-58
2023/05/08 03:57:18;;;;;;;102.32;58.33;;;;;;;11.94;100.00;102136.56;4987654;28;20025;-56
2023/05/08 03:59:53;;;;;;;187.55;59.50;;;;;;;11.90;100.00;102142.81;4987014;28;20442;-57
2023/05/08 04:02:33;;;;;;;173.40;61.15;;;;;;;11.79;100.00;102137.72;5007125;28;20034;-57
2023/05/08 04:05:05;;;;;;;176.02;59.13;;;;;;;11.75;100.00;102136.88;4987179;28;20034;-55
2023/05/08 04:07:36;;;;;;;121.55;60.53;;;;;;;11.77;100.00;102150.06;5007349;28;20026;-55
2023/05/08 04:10:10;;;;;;;118.57;60.83;;;;;;;11.85;100.00;102136.72;5003917;28;20132;-57
2023/05/08 04:12:39;;;;;;;137.00;65.47;;;;;;;11.97;100.00;102143.56;5005965;28;20113;-57
2023/05/08 04:15:20;;;;;;;205.27;71.95;;;;;;;11.98;100.00;102132.97;5002580;28;20036;-55
2023/05/08 04:17:52;;;;;;;204.57;72.13;;;;;;;11.99;100.00;102136.47;4990651;28;20037;-57
2023/05/08 04:20:24;;;;;;;169.05;72.53;;;;;;;12.02;100.00;102136.41;4985793;28;20026;-57
2023/05/08 04:22:52;;;;;;;231.40;74.00;;;;;;;12.07;100.00;102146.94;4985860;28;20031;-58
2023/05/08 04:25:18;;;;;;;193.32;76.43;;;;;;;12.09;100.00;102147.75;4985513;28;20082;-55
2023/05/08 04:27:43;;;;;;;148.88;69.97;;;;;;;12.10;100.00;102147.72;4985587;28;20102;-59
2023/05/08 04:30:09;;;;;;;174.63;70.47;;;;;;;12.09;100.00;102159.22;4985419;28;20500;-57
2023/05/08 04:32:35;;;;;;;219.45;72.03;;;;;;;12.15;100.00;102163.50;4986489;28;20489;-58
2023/05/08 04:35:01;;;;;;;149.00;69.97;;;;;;;12.24;100.00;102165.09;4987149;28;20045;-55
2023/05/08 04:37:28;;;;;;;144.60;66.85;;;;;;;12.28;100.00;102166.75;4987592;28;20045;-57
2023/05/08 04:39:53;;;;;;;110.53;61.75;;;;;;;12.37;100.00;102161.31;4986480;28;20022;-56
2023/05/08 04:42:19;;;;;;;101.90;58.13;;;;;;;12.37;100.00;102163.94;4997851;28;20619;-58
2023/05/08 04:44:46;;;;;;;202.32;56.03;;;;;;;12.10;100.00;102163.59;4986207;28;20122;-58
2023/05/08 04:47:12;;;;;;;159.80;55.42;;;;;;;12.07;100.00;102171.56;4986595;28;20122;-58
2023/05/08 04:49:37;;;;;;;155.02;50.33;;;;;;;12.20;100.00;102171.34;4985600;28;20832;-57
2023/05/08 04:52:03;;;;;;;163.15;51.13;;;;;;;12.03;100.00;102169.84;4986073;28;20034;-57
2023/05/08 04:54:28;;;;;;;174.15;51.13;;;;;;;12.18;100.00;102170.50;4989850;28;20618;-55
2023/05/08 04:56:54;;;;;;;57.85;44.58;;;;;;;12.28;100.00;102171.19;5011249;28;20032;-56
2023/05/08 04:59:19;;;;;;;94.75;51.63;;;;;;;12.26;100.00;102177.38;5009128;28;20029;-57
2023/05/08 05:01:46;;;;;;;208.20;54.63;;;;;;;12.19;100.00;102186.31;5008181;28;20030;-57
2023/05/08 05:04:11;;;;;;;167.82;53.45;;;;;;;12.18;100.00;102181.94;5010815;28;20127;-58
2023/05/08 05:06:37;;;;;;;324.83;62.85;;;;;;;12.08;100.00;102188.31;5009523;28;20037;-56
2023/05/08 05:09:03;;;;;;;254.15;58.72;;;;;;;12.17;100.00;102188.13;5010781;28;20049;-57
2023/05/08 05:11:29;;;;;;;168.57;54.72;;;;;;;12.18;100.00;102199.56;5000644;28;20038;-56
2023/05/08 05:13:54;;;;;;;196.27;55.67;;;;;;;12.30;100.00;102191.41;4990592;28;20028;-56
2023/05/08 05:16:19;;;;;;;138.32;56.85;;;;;;;12.37;100.00;102195.66;4996604;28;20037;-58
2023/05/08 05:18:45;;;;;;;114.75;53.95;;;;;;;12.46;100.00;102194.59;5010463;28;20026;-57
2023/05/08 05:21:10;;;;;;;214.50;56.08;;;;;;;12.41;100.00;102199.13;5006936;28;20045;-56
2023/05/08 05:23:36;;;;;;;132.85;58.33;;;;;;;12.50;100.00;102198.91;4990151;28;20019;-56
2023/05/08 05:26:01;;;;;;;414.05;62.05;;;;;;;12.40;100.00;102196.50;4990150;28;20030;-58
2023/05/08 05:28:26;;;;;;;121.28;50.08;;;;;;;12.60;100.00;102202.28;4990271;28;20106;-56
2023/05/08 05:30:52;;;;;;;148.98;51.75;;;;;;;12.67;100.00;102195.06;4989880;28;20113;-56
2023/05/08 05:33:17;;;;;;;166.50;52.45;;;;;;;12.82;100.00;102203.59;4992352;28;20038;-56
2023/05/08 05:35:43;;;;;;;181.45;51.47;;;;;;;12.83;100.00;102200.03;4977455;28;20045;-59
2023/05/08 05:38:08;;;;;;;117.65;49.47;;;;;;;12.99;100.00;102208.50;4984482;28;20140;-54
2023/05/08 05:40:33;;;;;;;375.83;51.97;;;;;;;13.12;100.00;102214.38;4988374;28;20061;-56
2023/05/08 05:42:59;;;;;;;211.52;50.35;;;;;;;13.10;100.00;102222.34;4989931;28;20022;-59
2023/05/08 05:45:24;;;;;;;128.20;46.70;;;;;;;13.16;100.00;102216.06;4991071;28;20106;-57
2023/05/08 05:47:52;;;;;;;129.45;45.83;;;;;;;13.29;100.00;102219.31;4979217;28;20102;-58
2023/05/08 05:50:18;;;;;;;128.38;47.40;;;;;;;13.20;100.00;102224.81;4979033;28;20045;-60
2023/05/08 05:52:44;;;;;;;274.88;52.08;;;;;;;13.17;100.00;102231.03;4986205;28;20033;-54
2023/05/08 05:55:10;;;;;;;162.18;44.20;;;;;;;13.25;100.00;102244.09;4988590;28;20049;-58
2023/05/08 05:57:36;;;;;;;146.98;47.88;;;;;;;13.20;100.00;102240.69;4987354;28;20450;-56
2023/05/08 06:00:03;;;;;;;167.68;43.58;;;;;;;13.20;100.00;102246.84;4985004;28;20085;-56
2023/05/08 06:02:28;;;;;;;125.68;42.42;;;;;;;13.30;100.00;102238.72;4987571;28;20018;-56
2023/05/08 06:04:54;;;;;;;144.98;42.70;;;;;;;13.32;100.00;102244.81;4986963;28;20066;-58
2023/05/08 06:07:20;;;;;;;99.07;43.65;;;;;;;13.32;100.00;102255.41;4986454;28;20066;-56
2023/05/08 06:09:46;;;;;;;134.65;43.65;;;;;;;13.44;100.00;102254.25;4987296;28;20038;-58
2023/05/08 06:12:12;;;;;;;95.43;43.78;;;;;;;13.39;100.00;102254.34;4990777;28;20029;-55
2023/05/08 06:14:37;;;;;;;89.78;44.65;;;;;;;13.51;100.00;102248.81;5007681;28;20041;-59
2023/05/08 06:17:02;;;;;;;91.32;46.85;;;;;;;13.68;100.00;102250.19;5004638;28;20040;-56
2023/05/08 06:19:28;;;;;;;90.50;46.25;;;;;;;13.81;100.00;102250.75;5005360;28;20495;-56
2023/05/08 06:21:53;;;;;;;107.30;47.20;;;;;;;14.00;100.00;102242.34;4987182;28;20027;-54
2023/05/08 06:24:19;;;;;;;83.45;45.10;;;;;;;13.96;100.00;102241.53;4986311;28;20142;-56
2023/05/08 06:26:45;;;;;;;82.03;45.78;;;;;;;13.92;100.00;102244.31;4987145;28;20457;-58
2023/05/08 06:29:10;;;;;;;81.97;46.67;;;;;;;13.96;100.00;102243.31;5002484;28;20038;-57
2023/05/08 06:31:36;;;;;;;86.32;47.78;;;;;;;13.95;100.00;102241.59;5007455;28;20022;-59
2023/05/08 06:34:01;;;;;;;80.97;47.13;;;;;;;14.09;100.00;102234.13;5006574;28;20033;-57
2023/05/08 06:36:27;;;;;;;84.05;48.30;;;;;;;14.24;100.00;102235.50;4993841;28;20038;-57
2023/05/08 06:38:52;;;;;;;89.75;48.42;;;;;;;14.26;100.00;102238.13;4981237;28;20030;-57
2023/05/08 06:41:17;;;;;;;84.50;43.47;;;;;;;14.48;100.00;102242.84;4987831;28;20018;-57
2023/05/08 06:43:43;;;;;;;72.28;40.65;;;;;;;14.43;100.00;102236.78;4986011;28;20061;-56
2023/05/08 06:46:08;;;;;;;76.95;41.15;;;;;;;14.43;100.00;102237.66;4997582;28;20058;-58
2023/05/08 06:48:34;;;;;;;76.20;42.35;;;;;;;14.55;100.00;102239.09;5005550;28;20160;-57
2023/05/08 06:50:59;;;;;;;73.15;40.45;;;;;;;14.61;100.00;102236.28;5007362;28;20420;-58
2023/05/08 06:53:24;;;;;;;77.32;41.00;;;;;;;14.65;100.00;102237.03;5005858;28;20128;-54
2023/05/08 06:55:50;;;;;;;79.90;39.40;;;;;;;14.65;100.00;102234.41;5007514;28;20479;-61
2023/05/08 06:58:15;;;;;;;71.47;37.83;;;;;;;14.82;100.00;102236.59;5005409;28;20042;-56
2023/05/08 07:00:41;;;;;;;65.15;36.33;;;;;;;14.91;100.00;102231.00;5008359;28;20044;-57
2023/05/08 07:03:06;;;;;;;66.00;36.65;;;;;;;14.93;100.00;102235.41;4991859;28;20022;-58
2023/05/08 07:05:32;;;;;;;75.63;38.28;;;;;;;14.89;100.00;102232.84;4985243;28;20122;-56
2023/05/08 07:07:57;;;;;;;73.60;37.78;;;;;;;14.93;100.00;102232.75;4981811;28;20069;-58
2023/05/08 07:10:22;;;;;;;84.15;39.53;;;;;;;14.99;100.00;102236.09;4987908;28;20085;-58
2023/05/08 07:12:48;;;;;;;85.35;41.67;;;;;;;14.95;100.00;102231.78;4989044;28;20133;-56
2023/05/08 07:15:14;;;;;;;71.32;37.35;;;;;;;15.01;100.00;102226.31;4998964;28;20045;-56
2023/05/08 07:17:40;;;;;;;73.60;38.83;;;;;;;15.05;100.00;102221.75;4987096;28;20054;-58
2023/05/08 07:20:06;;;;;;;65.95;37.15;;;;;;;15.36;100.00;102220.81;4986095;28;20112;-58
2023/05/08 07:22:32;;;;;;;73.80;37.00;;;;;;;15.49;100.00;102220.38;4986580;28;20445;-54
2023/05/08 07:24:57;;;;;;;78.57;38.72;;;;;;;15.68;100.00;102219.81;4985667;28;20096;-57
2023/05/08 07:27:22;;;;;;;69.35;37.42;;;;;;;15.64;100.00;102219.91;4987592;28;20050;-59
2023/05/08 07:29:48;;;;;;;66.68;36.28;;;;;;;15.66;100.00;102212.72;4986269;28;20076;-58
2023/05/08 07:32:14;;;;;;;61.80;33.97;;;;;;;15.75;100.00;102216.00;4987699;28;20481;-58
2023/05/08 07:34:39;;;;;;;66.05;34.45;;;;;;;15.86;100.00;102223.63;4989739;28;20536;-60
2023/05/08 07:37:05;;;;;;;63.75;36.20;;;;;;;16.01;100.00;102217.78;4986932;28;20027;-57
2023/05/08 07:39:30;;;;;;;72.32;36.92;;;;;;;16.02;100.00;102213.34;4986683;28;20292;-59
2023/05/08 07:41:56;;;;;;;66.18;35.28;;;;;;;15.86;100.00;102215.66;4984822;28;20058;-57
2023/05/08 07:44:21;;;;;;;70.97;36.20;;;;;;;16.10;100.00;102215.75;4985045;28;20041;-56
2023/05/08 07:46:46;;;;;;;70.45;35.13;;;;;;;16.32;100.00;102218.50;4986657;28;20030;-57
2023/05/08 07:49:12;;;;;;;60.85;31.52;;;;;;;16.60;100.00;102220.16;4986792;28;20546;-58
2023/05/08 07:51:39;;;;;;;55.85;30.08;;;;;;;16.62;100.00;102220.09;4986164;28;20485;-56
2023/05/08 07:54:04;;;;;;;54.63;31.10;;;;;;;16.87;100.00;102214.69;4976574;28;20521;-58
2023/05/08 07:56:30;;;;;;;56.97;30.55;;;;;;;17.08;100.00;102225.47;4994151;28;20064;-56
2023/05/08 07:58:55;;;;;;;56.08;30.05;;;;;;;17.34;100.00;102214.69;4994644;28;20030;-57
2023/05/08 08:01:20;;;;;;;57.15;29.92;;;;;;;17.30;100.00;102222.81;4985573;28;20026;-56
2023/05/08 08:03:46;;;;;;;56.90;31.70;;;;;;;17.59;100.00;102225.22;4985460;28;20576;-58
2023/05/08 08:06:12;;;;;;;55.05;30.77;;;;;;;17.52;100.00;102229.06;4987690;28;20030;-57
2023/05/08 08:08:38;;;;;;;60.28;31.55;;;;;;;17.48;100.00;102228.31;4986475;28;20536;-57
2023/05/08 08:11:03;;;;;;;60.55;32.30;;;;;;;17.72;100.00;102230.88;4984232;28;20397;-58
2023/05/08 08:13:29;;;;;;;59.67;32.15;;;;;;;18.05;100.00;102226.81;4984356;28;20526;-56
2023/05/08 08:15:54;;;;;;;53.35;30.20;;;;;;;18.24;100.00;102228.72;4985827;28;20057;-58
2023/05/08 08:18:19;;;;;;;57.58;28.15;;;;;;;18.55;100.00;102230.84;4986487;28;20445;-55
2023/05/08 08:20:45;;;;;;;58.08;28.40;;;;;;;18.61;100.00;102226.19;4985701;28;20815;-56
2023/05/08 08:23:10;;;;;;;50.08;26.35;;;;;;;18.84;100.00;102227.78;4987058;28;20018;-58
2023/05/08 08:25:35;;;;;;;52.38;27.27;;;;;;;18.62;100.00;102236.78;4987646;28;20890;-62
2023/05/08 08:28:01;;;;;;;51.03;26.38;;;;;;;18.62;100.00;102235.91;4984546;28;20027;-58
2023/05/08 08:30:26;;;;;;;38.38;21.83;;;;;;;18.65;100.00;102231.31;4986210;28;20036;-57
2023/05/08 08:32:51;;;;;;;33.70;19.83;;;;;;;18.86;100.00;102227.72;4985956;28;20035;-56
2023/05/08 08:35:17;;;;;;;41.78;21.83;;;;;;;19.16;100.00;102219.19;4985446;28;20105;-55
2023/05/08 08:37:42;;;;;;;45.08;24.30;;;;;;;19.00;100.00;102216.38;4986192;28;20461;-59
2023/05/08 08:40:08;;;;;;;47.97;24.67;;;;;;;19.04;100.00;102223.31;4985978;28;20014;-59
2023/05/08 08:42:33;;;;;;;49.55;24.85;;;;;;;19.17;100.00;102219.13;4985524;28;20048;-55
2023/05/08 08:44:59;;;;;;;46.22;24.15;;;;;;;19.46;100.00;102215.97;4974012;28;20049;-58
2023/05/08 08:47:32;;;;;;;47.70;25.10;;;;;;;19.30;100.00;102215.88;4985740;28;20114;-57
2023/05/08 08:50:01;;;;;;;50.65;27.48;;;;;;;19.35;100.00;102216.50;5007269;28;20038;-59
2023/05/08 08:52:34;;;;;;;53.28;28.15;;;;;;;19.08;100.00;102216.06;5000077;28;20220;-57
2023/05/08 08:55:01;;;;;;;49.72;26.75;;;;;;;19.21;100.00;102221.66;4985612;28;20022;-58
2023/05/08 08:57:32;;;;;;;49.97;26.20;;;;;;;19.48;100.00;102214.09;4989553;28;20018;-58
2023/05/08 08:59:58;;;;;;;53.83;28.20;;;;;;;19.49;100.00;102215.81;5005123;28;20034;-59
2023/05/08 09:02:24;;;;;;;50.65;25.17;;;;;;;19.44;100.00;102217.84;4999789;28;20032;-59
2023/05/08 09:04:50;;;;;;;53.15;27.35;;;;;;;19.48;100.00;102221.22;4984624;28;20493;-57
2023/05/08 09:07:16;;;;;;;46.35;26.10;;;;;;;19.64;100.00;102219.53;4984689;28;20025;-60
2023/05/08 09:09:43;;;;;;;44.15;24.58;;;;;;;19.93;100.00;102217.16;5002045;28;20026;-56
2023/05/08 09:12:09;;;;;;;51.65;26.52;;;;;;;20.00;100.00;102212.34;5003951;28;20543;-56
2023/05/08 09:14:35;;;;;;;48.92;27.83;;;;;;;20.10;100.00;102214.59;5001704;28;20022;-55
2023/05/08 09:17:00;;;;;;;52.25;29.38;;;;;;;19.94;100.00;102204.66;4987914;28;20030;-61
2023/05/08 09:19:27;;;;;;;48.50;26.85;;;;;;;19.88;100.00;102205.84;4984109;28;20041;-56
2023/05/08 09:21:53;;;;;;;47.83;26.55;;;;;;;20.31;100.00;102207.19;4999275;28;20036;-57
2023/05/08 09:24:19;;;;;;;48.83;26.92;;;;;;;20.41;100.00;102211.09;5003227;28;20029;-56
2023/05/08 09:26:44;;;;;;;46.95;26.77;;;;;;;20.19;100.00;102214.94;4997345;28;20032;-56
2023/05/08 09:29:21;;;;;;;47.80;26.15;;;;;;;20.66;100.00;102214.28;4985657;28;20408;-58
2023/05/08 09:31:50;;;;;;;42.63;25.73;;;;;;;20.53;100.00;102212.25;4985681;28;20022;-56
2023/05/08 09:34:29;;;;;;;50.20;24.63;;;;;;;20.48;100.00;102213.47;5003743;28;20084;-59
2023/05/08 09:37:09;;;;;;;45.20;23.35;;;;;;;20.34;100.00;102204.38;5001883;28;20029;-56
2023/05/08 09:39:34;;;;;;;41.75;23.55;;;;;;;20.63;100.00;102207.28;4999925;28;20038;-57
2023/05/08 09:42:02;;;;;;;44.60;24.00;;;;;;;20.64;100.00;102211.69;5004870;28;20021;-58
2023/05/08 09:44:27;;;;;;;42.25;23.83;;;;;;;21.18;100.00;102210.50;4984235;28;20046;-60
2023/05/08 09:47:09;;;;;;;44.42;22.88;;;;;;;21.34;100.00;102214.97;4985554;28;20031;-57
2023/05/08 09:49:35;;;;;;;38.17;21.02;;;;;;;21.77;100.00;102216.09;4999386;28;20033;-58
2023/05/08 09:52:00;;;;;;;40.30;20.02;;;;;;;21.75;100.00;102212.59;5001869;28;20033;-57
2023/05/08 09:54:26;;;;;;;32.17;19.58;;;;;;;22.05;100.00;102211.72;5007110;28;20534;-58
2023/05/08 09:56:51;;;;;;;32.88;19.27;;;;;;;21.96;100.00;102218.53;5006365;28;20033;-57
2023/05/08 09:59:26;;;;;;;27.33;17.73;;;;;;;22.03;100.00;102221.72;5003240;28;20026;-58
2023/05/08 10:01:51;;;;;;;30.00;18.70;;;;;;;21.99;100.00;102209.41;4999814;28;20040;-57
2023/05/08 10:04:17;;;;;;;36.40;20.70;;;;;;;22.19;100.00;102218.94;4987008;28;20046;-59
2023/05/08 10:06:42;;;;;;;29.85;19.05;;;;;;;22.39;99.78;102212.31;4995973;28;20377;-55
2023/05/08 10:09:10;;;;;;;36.72;20.65;;;;;;;22.60;98.69;102211.94;4997953;28;20037;-56
2023/05/08 10:11:36;;;;;;;33.63;21.42;;;;;;;22.34;97.34;102212.59;4987698;28;20456;-58
2023/05/08 10:14:01;;;;;;;38.40;21.00;;;;;;;22.44;98.51;102204.84;5005245;28;20065;-57
2023/05/08 10:16:28;;;;;;;40.67;22.67;;;;;;;22.29;99.61;102206.69;5007303;28;20424;-56
2023/05/08 10:19:04;;;;;;;41.78;22.95;;;;;;;21.82;100.00;102212.19;5004244;28;20030;-60
2023/05/08 10:21:36;;;;;;;45.47;24.52;;;;;;;21.90;99.89;102219.78;5003307;28;20022;-54
2023/05/08 10:24:04;;;;;;;39.55;23.73;;;;;;;22.07;100.00;102209.84;4991232;28;20122;-56
2023/05/08 10:26:30;;;;;;;39.43;22.93;;;;;;;22.28;98.50;102207.66;4990929;28;20692;-58
2023/05/08 10:28:58;;;;;;;44.70;25.20;;;;;;;22.68;97.23;102209.66;4997838;28;20037;-55
2023/05/08 10:31:44;;;;;;;47.05;26.98;;;;;;;22.42;99.90;102213.94;4984951;28;20072;-57
2023/05/08 10:34:14;;;;;;;40.75;24.75;;;;;;;22.20;100.00;102204.56;4994565;28;20480;-58
2023/05/08 10:36:39;;;;;;;39.60;22.90;;;;;;;22.65;97.99;102208.97;5000728;28;20129;-59
2023/05/08 10:39:05;;;;;;;40.92;22.70;;;;;;;22.62;97.17;102212.72;5004052;28;20110;-62
2023/05/08 10:41:31;;;;;;;38.95;23.02;;;;;;;22.84;96.17;102216.72;4985796;28;20014;-61
2023/05/08 10:43:58;;;;;;;35.03;21.92;;;;;;;22.85;97.65;102213.09;4987150;28;20451;-59
2023/05/08 10:46:38;;;;;;;30.90;19.45;;;;;;;23.16;93.65;102211.06;5002410;28;20026;-59
2023/05/08 10:49:25;;;;;;;30.38;19.50;;;;;;;23.03;91.86;102210.16;5000552;28;20026;-60
2023/05/08 10:52:06;;;;;;;32.70;20.52;;;;;;;22.72;96.50;102213.84;4988808;28;20044;-58
2023/05/08 10:54:54;;;;;;;36.65;22.50;;;;;;;22.79;96.06;102205.41;5001072;28;20053;-58
2023/05/08 10:57:20;;;;;;;38.33;24.38;;;;;;;22.28;99.25;102209.47;5000470;28;20109;-61
2023/05/08 10:59:45;;;;;;;31.48;21.67;;;;;;;22.53;97.97;102210.59;5007281;28;20129;-60
2023/05/08 11:02:12;;;;;;;26.33;18.83;;;;;;;22.79;95.45;102200.88;4989092;28;20101;-59
2023/05/08 11:04:37;;;;;;;33.13;21.17;;;;;;;23.01;94.20;102198.63;4996772;28;20453;-58